createdAt,value
2023-02-28T00:01:03.940Z,-0.51
2023-02-28T00:03:38.671Z,-0.55
2023-02-28T00:06:13.181Z,-0.58
2023-02-28T00:08:47.000Z,-0.59
2023-02-28T00:11:21.402Z,-0.61
2023-02-28T00:13:55.179Z,-0.63
2023-02-28T00:16:29.153Z,-0.67
2023-02-28T00:19:02.928Z,-0.70
2023-02-28T00:21:36.998Z,-0.73
2023-02-28T00:24:10.997Z,-0.75
2023-02-28T00:26:44.459Z,-0.79
2023-02-28T00:29:18.107Z,-0.81
2023-02-28T00:31:51.695Z,-0.83
2023-02-28T00:34:25.209Z,-0.88
2023-02-28T00:37:00.123Z,-0.93
2023-02-28T00:39:33.894Z,-0.98
2023-02-28T00:42:08.912Z,-0.98
2023-02-28T00:44:42.302Z,-0.97
2023-02-28T00:47:15.784Z,-0.95
2023-02-28T00:49:50.500Z,-0.94
2023-02-28T00:52:24.188Z,-0.94
2023-02-28T00:54:58.874Z,-0.96
2023-02-28T00:57:32.926Z,-0.97
2023-02-28T01:00:07.546Z,-0.97
2023-02-28T01:02:41.501Z,-0.99
2023-02-28T01:05:15.000Z,-1.03
2023-02-28T01:07:48.618Z,-1.06
2023-02-28T01:10:22.461Z,-1.08
2023-02-28T01:12:56.201Z,-1.11
2023-02-28T01:15:29.664Z,-1.12
2023-02-28T01:18:03.371Z,-1.15
2023-02-28T01:20:41.408Z,-1.19
2023-02-28T01:23:15.520Z,-1.23
2023-02-28T01:25:49.097Z,-1.25
2023-02-28T01:28:22.998Z,-1.28
2023-02-28T01:30:57.655Z,-1.30
2023-02-28T01:33:31.730Z,-1.28
2023-02-28T01:36:09.295Z,-1.26
2023-02-28T01:38:43.396Z,-1.24
2023-02-28T01:41:21.971Z,-1.23
2023-02-28T01:44:06.739Z,-1.24
2023-02-28T01:46:40.679Z,-1.25
2023-02-28T01:49:19.542Z,-1.25
2023-02-28T01:51:53.098Z,-1.29
2023-02-28T01:54:29.658Z,-1.33
2023-02-28T01:57:08.456Z,-1.37
2023-02-28T01:59:47.878Z,-1.41
2023-02-28T02:02:24.661Z,-1.44
2023-02-28T02:05:02.984Z,-1.45
2023-02-28T02:07:39.720Z,-1.46
2023-02-28T02:10:18.360Z,-1.46
2023-02-28T02:13:09.146Z,-1.43
2023-02-28T02:15:47.472Z,-1.40
2023-02-28T02:18:24.916Z,-1.38
2023-02-28T02:21:40.492Z,-1.38
2023-02-28T02:24:51.877Z,-1.40
2023-02-28T02:27:49.433Z,-1.43
2023-02-28T02:30:50.220Z,-1.45
2023-02-28T02:34:10.957Z,-1.48
2023-02-28T02:36:50.879Z,-1.52
2023-02-28T02:39:32.715Z,-1.56
2023-02-28T02:42:14.678Z,-1.58
2023-02-28T02:44:56.871Z,-1.62
2023-02-28T02:47:34.583Z,-1.65
2023-02-28T02:50:16.331Z,-1.69
2023-02-28T02:52:54.830Z,-1.69
2023-02-28T02:55:29.628Z,-1.68
2023-02-28T02:58:07.802Z,-1.68
2023-02-28T03:00:46.542Z,-1.65
2023-02-28T03:03:30.326Z,-1.64
2023-02-28T03:06:05.295Z,-1.62
2023-02-28T03:08:41.378Z,-1.63
2023-02-28T03:11:18.397Z,-1.65
2023-02-28T03:14:04.077Z,-1.67
2023-02-28T03:17:01.143Z,-1.67
2023-02-28T03:19:58.705Z,-1.68
2023-02-28T03:22:52.475Z,-1.72
2023-02-28T03:25:41.033Z,-1.73
2023-02-28T03:28:22.783Z,-1.75
2023-02-28T03:31:03.714Z,-1.77
2023-02-28T03:33:42.085Z,-1.78
2023-02-28T03:36:21.414Z,-1.78
2023-02-28T03:39:04.121Z,-1.78
2023-02-28T03:41:44.480Z,-1.76
2023-02-28T03:44:24.581Z,-1.76
2023-02-28T03:47:02.914Z,-1.77
2023-02-28T03:49:44.641Z,-1.80
2023-02-28T03:52:21.158Z,-1.85
2023-02-28T03:55:01.971Z,-1.88
2023-02-28T03:57:40.465Z,-1.91
2023-02-28T04:00:15.196Z,-1.96
2023-02-28T04:02:54.258Z,-2.01
2023-02-28T04:05:29.553Z,-2.04
2023-02-28T04:08:10.561Z,-2.02
2023-02-28T04:10:46.150Z,-1.99
2023-02-28T04:13:19.820Z,-1.96
2023-02-28T04:15:53.984Z,-1.95
2023-02-28T04:18:28.032Z,-1.94
2023-02-28T04:21:04.617Z,-1.93
2023-02-28T04:23:38.762Z,-1.92
2023-02-28T04:26:12.181Z,-1.90
2023-02-28T04:28:45.468Z,-1.92
2023-02-28T04:31:19.193Z,-1.95
2023-02-28T04:33:52.821Z,-1.97
2023-02-28T04:36:26.358Z,-2.00
2023-02-28T04:39:00.959Z,-2.02
2023-02-28T04:41:35.175Z,-2.03
2023-02-28T04:44:09.445Z,-2.02
2023-02-28T04:46:43.482Z,-2.01
2023-02-28T04:49:17.793Z,-2.00
2023-02-28T04:51:51.254Z,-2.01
2023-02-28T04:54:25.172Z,-2.02
2023-02-28T04:56:58.781Z,-2.02
2023-02-28T04:59:32.715Z,-2.03
2023-02-28T05:02:08.259Z,-2.03
2023-02-28T05:04:42.398Z,-2.02
2023-02-28T05:07:16.056Z,-2.01
2023-02-28T05:09:49.822Z,-2.03
2023-02-28T05:12:24.020Z,-2.05
2023-02-28T05:14:57.778Z,-2.07
2023-02-28T05:17:31.369Z,-2.08
2023-02-28T05:20:15.035Z,-2.07
2023-02-28T05:22:49.458Z,-2.07
2023-02-28T05:25:24.641Z,-2.04
2023-02-28T05:27:58.276Z,-2.01
2023-02-28T05:30:32.954Z,-1.98
2023-02-28T05:33:07.074Z,-1.95
2023-02-28T05:35:43.387Z,-1.91
2023-02-28T05:38:17.600Z,-1.88
2023-02-28T05:40:51.521Z,-1.85
2023-02-28T05:43:25.507Z,-1.84
2023-02-28T05:45:59.307Z,-1.84
2023-02-28T05:48:33.249Z,-1.83
2023-02-28T05:51:07.684Z,-1.83
2023-02-28T05:53:41.558Z,-1.78
2023-02-28T05:56:15.645Z,-1.71
2023-02-28T05:58:49.418Z,-1.64
2023-02-28T06:01:33.805Z,-1.58
2023-02-28T06:04:14.288Z,-1.52
2023-02-28T06:06:54.057Z,-1.44
2023-02-28T06:09:27.864Z,-1.38
2023-02-28T06:12:04.345Z,-1.32
2023-02-28T06:14:38.974Z,-1.26
2023-02-28T06:17:13.242Z,-1.18
2023-02-28T06:19:46.927Z,-1.12
2023-02-28T06:22:20.721Z,-1.05
2023-02-28T06:24:56.091Z,-0.98
2023-02-28T06:27:29.767Z,-0.90
2023-02-28T06:30:03.859Z,-0.80
2023-02-28T06:32:37.528Z,-0.67
2023-02-28T06:35:12.009Z,-0.52
2023-02-28T06:37:45.978Z,-0.36
2023-02-28T06:40:20.491Z,-0.22
2023-02-28T06:42:53.912Z,-0.06
2023-02-28T06:45:27.394Z,0.21
2023-02-28T06:48:01.595Z,0.64
2023-02-28T06:50:35.582Z,1.03
2023-02-28T06:53:09.020Z,1.43
2023-02-28T06:55:44.885Z,1.68
2023-02-28T06:58:20.410Z,1.93
2023-02-28T07:00:55.590Z,2.16
2023-02-28T07:03:29.096Z,2.46
2023-02-28T07:06:03.098Z,2.67
2023-02-28T07:08:37.111Z,2.76
2023-02-28T07:11:11.016Z,2.83
2023-02-28T07:13:44.565Z,2.86
2023-02-28T07:16:18.331Z,2.98
2023-02-28T07:18:52.288Z,3.25
2023-02-28T07:21:26.351Z,3.39
2023-02-28T07:24:00.485Z,3.84
2023-02-28T07:26:35.366Z,5.58
2023-02-28T07:29:09.496Z,7.55
2023-02-28T07:31:43.351Z,8.60
2023-02-28T07:34:17.348Z,9.70
2023-02-28T07:36:54.997Z,11.18
2023-02-28T07:39:28.602Z,12.16
2023-02-28T07:42:05.151Z,13.26
2023-02-28T07:44:42.014Z,13.74
2023-02-28T07:47:15.555Z,13.00
2023-02-28T07:49:49.636Z,11.98
2023-02-28T07:52:24.578Z,10.82
2023-02-28T07:54:59.033Z,10.88
2023-02-28T07:57:36.578Z,12.44
2023-02-28T08:00:13.959Z,13.88
2023-02-28T08:02:47.540Z,14.43
2023-02-28T08:05:22.302Z,14.66
2023-02-28T08:07:56.430Z,15.03
2023-02-28T08:10:30.588Z,15.46
2023-02-28T08:13:04.356Z,16.13
2023-02-28T08:15:38.369Z,16.39
2023-02-28T08:18:11.919Z,16.30
2023-02-28T08:20:46.030Z,16.17
2023-02-28T08:23:20.015Z,15.89
2023-02-28T08:25:59.232Z,15.28
2023-02-28T08:28:33.903Z,14.55
2023-02-28T08:31:12.264Z,14.51
2023-02-28T08:33:47.218Z,14.73
2023-02-28T08:36:21.879Z,14.17
2023-02-28T08:38:55.691Z,12.96
2023-02-28T08:41:29.853Z,11.87
2023-02-28T08:44:04.197Z,10.92
2023-02-28T08:46:37.751Z,10.51
2023-02-28T08:49:13.107Z,10.40
2023-02-28T08:51:47.067Z,10.24
2023-02-28T08:54:20.876Z,10.06
2023-02-28T08:56:54.152Z,9.94
2023-02-28T08:59:27.539Z,10.68
2023-02-28T09:02:01.054Z,12.47
2023-02-28T09:04:36.051Z,14.40
2023-02-28T09:07:10.315Z,16.22
2023-02-28T09:09:55.063Z,17.51
2023-02-28T09:12:30.241Z,17.59
2023-02-28T09:15:04.544Z,17.55
2023-02-28T09:17:38.459Z,17.12
2023-02-28T09:20:14.955Z,16.54
2023-02-28T09:22:48.495Z,16.84
2023-02-28T09:25:22.219Z,16.87
2023-02-28T09:27:55.905Z,16.26
2023-02-28T09:30:30.148Z,16.33
2023-02-28T09:33:04.615Z,16.51
2023-02-28T09:35:39.110Z,16.23
2023-02-28T09:38:13.388Z,15.40
2023-02-28T09:40:53.707Z,14.28
2023-02-28T09:43:29.812Z,13.16
2023-02-28T09:46:08.575Z,12.24
2023-02-28T09:48:44.036Z,11.56
2023-02-28T09:51:36.544Z,10.95
2023-02-28T09:54:15.199Z,10.29
2023-02-28T09:56:47.667Z,9.76
2023-02-28T09:59:39.826Z,9.45
2023-02-28T10:02:35.719Z,9.25
2023-02-28T10:05:12.731Z,9.39
2023-02-28T10:08:03.047Z,9.47
2023-02-28T10:10:41.665Z,9.08
2023-02-28T10:13:26.957Z,8.70
2023-02-28T10:16:06.199Z,8.41
2023-02-28T10:18:47.887Z,8.22
2023-02-28T10:21:28.755Z,8.14
2023-02-28T10:24:23.298Z,8.06
2023-02-28T10:27:02.515Z,8.91
2023-02-28T10:29:37.078Z,9.93
2023-02-28T10:32:13.934Z,10.95
2023-02-28T10:34:47.723Z,11.57
2023-02-28T10:37:22.395Z,12.44
2023-02-28T10:39:55.950Z,13.14
2023-02-28T10:42:31.446Z,13.85
2023-02-28T10:45:15.796Z,14.19
2023-02-28T10:47:58.496Z,14.69
2023-02-28T10:50:40.698Z,15.47
2023-02-28T10:53:30.780Z,16.48
2023-02-28T10:56:07.878Z,17.75
2023-02-28T10:58:52.963Z,18.76
2023-02-28T11:01:28.085Z,19.35
2023-02-28T11:04:01.653Z,19.58
2023-02-28T11:06:37.119Z,20.12
2023-02-28T11:09:23.501Z,20.04
2023-02-28T11:11:57.955Z,19.73
2023-02-28T11:14:35.519Z,19.51
2023-02-28T11:17:23.004Z,19.45
2023-02-28T11:19:59.007Z,19.85
2023-02-28T11:22:37.241Z,20.36
2023-02-28T11:25:23.599Z,20.85
2023-02-28T11:27:58.927Z,21.32
2023-02-28T11:30:36.546Z,21.82
2023-02-28T11:33:29.182Z,22.24
2023-02-28T11:36:07.089Z,22.90
2023-02-28T11:38:41.058Z,23.36
2023-02-28T11:41:47.923Z,23.45
2023-02-28T11:44:31.770Z,23.69
2023-02-28T11:47:12.552Z,23.65
2023-02-28T11:49:59.523Z,23.39
2023-02-28T11:52:44.215Z,23.34
2023-02-28T11:55:23.523Z,23.32
2023-02-28T11:58:19.788Z,22.94
2023-02-28T12:01:19.831Z,21.83
2023-02-28T12:04:06.316Z,19.94
2023-02-28T12:06:48.570Z,18.55
2023-02-28T12:09:44.269Z,17.92
2023-02-28T12:12:31.334Z,17.93
2023-02-28T12:15:26.454Z,17.79
2023-02-28T12:18:16.108Z,17.85
2023-02-28T12:20:57.043Z,17.93
2023-02-28T12:23:50.807Z,17.34
2023-02-28T12:26:35.075Z,16.57
2023-02-28T12:29:18.503Z,16.80
2023-02-28T12:31:56.458Z,17.64
2023-02-28T12:34:35.991Z,18.52
2023-02-28T12:37:16.906Z,19.26
2023-02-28T12:39:54.349Z,19.74
2023-02-28T12:42:34.053Z,20.12
2023-02-28T12:45:15.473Z,20.59
2023-02-28T12:47:53.693Z,20.74
2023-02-28T12:50:31.418Z,20.82
2023-02-28T12:53:09.487Z,20.67
2023-02-28T12:55:51.651Z,20.52
2023-02-28T12:58:35.621Z,20.08
2023-02-28T13:01:54.924Z,19.68
2023-02-28T13:04:52.857Z,19.74
2023-02-28T13:08:02.753Z,19.89
2023-02-28T13:10:47.376Z,19.85
2023-02-28T13:13:23.224Z,19.29
2023-02-28T13:16:09.042Z,18.57
2023-02-28T13:18:46.275Z,18.32
2023-02-28T13:21:30.384Z,18.03
2023-02-28T13:24:07.486Z,17.75
2023-02-28T13:27:15.851Z,17.85
2023-02-28T13:29:47.819Z,17.93
2023-02-28T13:32:47.464Z,17.97
2023-02-28T13:35:47.183Z,18.08
2023-02-28T13:38:36.594Z,18.05
2023-02-28T13:41:45.228Z,17.45
2023-02-28T13:44:24.456Z,16.81
2023-02-28T13:47:31.535Z,16.59
2023-02-28T13:50:26.548Z,16.15
2023-02-28T13:53:36.832Z,15.76
2023-02-28T13:56:25.252Z,15.37
2023-02-28T13:59:07.138Z,14.79
2023-02-28T14:01:59.658Z,14.19
2023-02-28T14:04:54.019Z,13.62
2023-02-28T14:07:35.628Z,13.03
2023-02-28T14:10:28.773Z,12.54
2023-02-28T14:13:15.325Z,12.15
2023-02-28T14:16:00.709Z,11.83
2023-02-28T14:18:37.565Z,11.50
2023-02-28T14:21:27.363Z,11.22
2023-02-28T14:24:25.188Z,10.97
2023-02-28T14:27:37.566Z,10.71
2023-02-28T14:30:44.174Z,10.45
2023-02-28T14:33:29.877Z,10.26
2023-02-28T14:36:21.924Z,10.05
2023-02-28T14:38:59.288Z,9.76
2023-02-28T14:41:38.616Z,9.48
2023-02-28T14:44:21.706Z,9.25
2023-02-28T14:46:57.584Z,9.05
2023-02-28T14:49:33.312Z,8.87
2023-02-28T14:52:17.816Z,8.72
2023-02-28T14:54:57.039Z,8.56
2023-02-28T14:57:33.753Z,8.42
2023-02-28T15:00:16.853Z,8.29
2023-02-28T15:02:50.932Z,8.15
2023-02-28T15:05:36.233Z,8.00
2023-02-28T15:08:17.088Z,7.83
2023-02-28T15:10:56.936Z,7.67
2023-02-28T15:13:39.289Z,7.56
2023-02-28T15:16:18.353Z,7.47
2023-02-28T15:18:55.570Z,7.37
2023-02-28T15:21:31.689Z,7.22
2023-02-28T15:24:10.328Z,7.07
2023-02-28T15:26:44.756Z,6.96
2023-02-28T15:29:22.002Z,6.85
2023-02-28T15:32:03.470Z,6.74
2023-02-28T15:34:43.508Z,6.65
2023-02-28T15:37:43.368Z,6.54
2023-02-28T15:40:20.670Z,6.43
2023-02-28T15:43:16.912Z,6.35
2023-02-28T15:45:52.723Z,6.24
2023-02-28T15:48:28.464Z,6.12
2023-02-28T15:51:09.120Z,6.02
2023-02-28T15:53:54.595Z,5.89
2023-02-28T15:56:32.764Z,5.78
2023-02-28T15:59:10.759Z,5.68
2023-02-28T16:01:44.682Z,5.57
2023-02-28T16:04:21.856Z,5.47
2023-02-28T16:07:06.365Z,5.38
2023-02-28T16:09:40.674Z,5.30
2023-02-28T16:12:15.609Z,5.22
2023-02-28T16:14:50.088Z,5.16
2023-02-28T16:17:25.894Z,5.08
2023-02-28T16:20:00.794Z,4.99
2023-02-28T16:22:34.800Z,4.91
2023-02-28T16:25:11.343Z,4.83
2023-02-28T16:27:51.229Z,4.73
2023-02-28T16:30:28.274Z,4.65
2023-02-28T16:33:02.818Z,4.59
2023-02-28T16:35:37.390Z,4.53
2023-02-28T16:38:12.446Z,4.48
2023-02-28T16:40:48.933Z,4.42
2023-02-28T16:43:26.080Z,4.36
2023-02-28T16:46:05.075Z,4.29
2023-02-28T16:48:43.289Z,4.22
2023-02-28T16:51:21.155Z,4.19
2023-02-28T16:53:55.007Z,4.13
2023-02-28T16:56:31.000Z,4.02
2023-02-28T16:59:07.053Z,3.93
2023-02-28T17:01:41.527Z,3.88
2023-02-28T17:04:17.121Z,3.84
2023-02-28T17:06:52.384Z,3.76
2023-02-28T17:09:40.242Z,3.66
2023-02-28T17:12:18.160Z,3.55
2023-02-28T17:14:52.562Z,3.46
2023-02-28T17:17:28.204Z,3.40
2023-02-28T17:20:03.876Z,3.37
2023-02-28T17:22:38.469Z,3.32
2023-02-28T17:25:18.848Z,3.27
2023-02-28T17:27:56.019Z,3.20
2023-02-28T17:30:32.985Z,3.15
2023-02-28T17:33:12.852Z,3.09
2023-02-28T17:35:52.180Z,3.04
2023-02-28T17:38:27.247Z,2.97
2023-02-28T17:41:02.485Z,2.91
2023-02-28T17:43:36.659Z,2.90
2023-02-28T17:46:22.421Z,2.90
2023-02-28T17:48:59.247Z,2.86
2023-02-28T17:51:33.980Z,2.81
2023-02-28T17:54:09.454Z,2.76
2023-02-28T17:56:47.806Z,2.70
2023-02-28T17:59:23.119Z,2.64
2023-02-28T18:01:58.196Z,2.60
2023-02-28T18:04:33.834Z,2.55
2023-02-28T18:07:12.740Z,2.47
2023-02-28T18:09:48.483Z,2.44
2023-02-28T18:12:24.642Z,2.42
2023-02-28T18:15:08.853Z,2.39
2023-02-28T18:17:43.753Z,2.33
2023-02-28T18:20:21.269Z,2.30
2023-02-28T18:22:57.152Z,2.27
2023-02-28T18:25:33.085Z,2.24
2023-02-28T18:28:08.653Z,2.22
2023-02-28T18:30:44.968Z,2.18
2023-02-28T18:33:22.362Z,2.11
2023-02-28T18:36:03.607Z,2.04
2023-02-28T18:38:42.957Z,1.97
2023-02-28T18:41:21.171Z,1.93
2023-02-28T18:43:59.753Z,1.90
2023-02-28T18:46:45.037Z,1.89
2023-02-28T18:49:26.998Z,1.87
2023-02-28T18:52:03.786Z,1.82
2023-02-28T18:54:40.790Z,1.77
2023-02-28T18:57:17.746Z,1.73
2023-02-28T18:59:56.003Z,1.69
2023-02-28T19:02:33.025Z,1.68
2023-02-28T19:05:12.591Z,1.64
2023-02-28T19:07:49.912Z,1.61
2023-02-28T19:10:29.519Z,1.59
2023-02-28T19:13:07.116Z,1.58
2023-02-28T19:15:43.204Z,1.55
2023-02-28T19:18:20.056Z,1.52
2023-02-28T19:20:56.476Z,1.51
2023-02-28T19:23:35.473Z,1.48
2023-02-28T19:26:16.704Z,1.45
2023-02-28T19:29:02.876Z,1.41
2023-02-28T19:31:41.636Z,1.37
2023-02-28T19:34:20.266Z,1.31
2023-02-28T19:37:03.629Z,1.24
2023-02-28T19:39:45.990Z,1.21
2023-02-28T19:42:23.247Z,1.17
2023-02-28T19:45:08.307Z,1.16
2023-02-28T19:47:46.990Z,1.17
2023-02-28T19:50:26.999Z,1.19
2023-02-28T19:53:05.207Z,1.19
2023-02-28T19:55:43.986Z,1.18
2023-02-28T19:58:22.744Z,1.16
2023-02-28T20:01:10.226Z,1.15
2023-02-28T20:03:49.467Z,1.11
2023-02-28T20:06:25.427Z,1.05
2023-02-28T20:09:02.316Z,0.98
2023-02-28T20:11:38.959Z,0.94
2023-02-28T20:14:16.108Z,0.92
2023-02-28T20:16:57.255Z,0.90
2023-02-28T20:19:40.436Z,0.88
2023-02-28T20:22:18.762Z,0.85
2023-02-28T20:24:57.409Z,0.81
2023-02-28T20:27:37.462Z,0.76
2023-02-28T20:30:16.340Z,0.71
2023-02-28T20:32:52.531Z,0.69
2023-02-28T20:35:29.113Z,0.68
2023-02-28T20:38:08.820Z,0.68
2023-02-28T20:40:46.945Z,0.69
2023-02-28T20:43:26.474Z,0.67
2023-02-28T20:46:03.526Z,0.65
2023-02-28T20:48:40.700Z,0.63
2023-02-28T20:51:16.010Z,0.65
2023-02-28T20:53:53.157Z,0.69
2023-02-28T20:56:28.224Z,0.72
2023-02-28T20:59:03.394Z,0.70
2023-02-28T21:01:41.264Z,0.70
2023-02-28T21:04:16.268Z,0.68
2023-02-28T21:06:53.957Z,0.63
2023-02-28T21:09:29.488Z,0.58
2023-02-28T21:12:04.220Z,0.55
2023-02-28T21:14:38.868Z,0.55
2023-02-28T21:17:15.101Z,0.53
2023-02-28T21:19:48.682Z,0.51
2023-02-28T21:22:25.849Z,0.50
2023-02-28T21:25:00.270Z,0.52
2023-02-28T21:27:35.376Z,0.53
2023-02-28T21:30:11.629Z,0.57
2023-02-28T21:32:45.845Z,0.59
2023-02-28T21:35:19.850Z,0.62
2023-02-28T21:37:54.409Z,0.63
2023-02-28T21:40:28.409Z,0.63
2023-02-28T21:43:02.278Z,0.63
2023-02-28T21:45:37.482Z,0.61
2023-02-28T21:48:11.927Z,0.58
2023-02-28T21:50:56.284Z,0.54
2023-02-28T21:53:29.993Z,0.53
2023-02-28T21:56:06.293Z,0.52
2023-02-28T21:58:40.057Z,0.50
2023-02-28T22:01:15.764Z,0.49
2023-02-28T22:03:50.983Z,0.49
2023-02-28T22:06:26.868Z,0.49
2023-02-28T22:09:02.753Z,0.49
2023-02-28T22:11:37.680Z,0.52
2023-02-28T22:14:12.616Z,0.52
2023-02-28T22:16:52.675Z,0.53
2023-02-28T22:19:29.063Z,0.53
2023-02-28T22:22:03.212Z,0.52
2023-02-28T22:24:36.860Z,0.50
2023-02-28T22:27:10.726Z,0.49
2023-02-28T22:29:44.519Z,0.48
2023-02-28T22:32:18.253Z,0.46
2023-02-28T22:34:53.770Z,0.44
2023-02-28T22:37:27.118Z,0.43
2023-02-28T22:40:00.632Z,0.41
2023-02-28T22:42:36.157Z,0.41
2023-02-28T22:45:11.570Z,0.43
2023-02-28T22:47:45.122Z,0.44
2023-02-28T22:50:19.455Z,0.45
2023-02-28T22:52:53.599Z,0.46
2023-02-28T22:55:27.157Z,0.46
2023-02-28T22:58:00.471Z,0.47
2023-02-28T23:00:34.401Z,0.47
2023-02-28T23:03:24.888Z,0.45
2023-02-28T23:06:21.253Z,0.41
2023-02-28T23:09:00.150Z,0.39
2023-02-28T23:11:35.969Z,0.37
2023-02-28T23:14:10.734Z,0.34
2023-02-28T23:16:47.550Z,0.31
2023-02-28T23:19:23.411Z,0.29
2023-02-28T23:21:57.010Z,0.30
2023-02-28T23:24:33.593Z,0.30
2023-02-28T23:27:08.697Z,0.32
2023-02-28T23:29:42.602Z,0.33
2023-02-28T23:32:16.230Z,0.32
2023-02-28T23:34:50.071Z,0.30
2023-02-28T23:37:23.619Z,0.27
2023-02-28T23:39:57.795Z,0.23
2023-02-28T23:42:32.120Z,0.21
2023-02-28T23:45:06.780Z,0.19
2023-02-28T23:47:40.786Z,0.17
2023-02-28T23:50:15.487Z,0.14
2023-02-28T23:52:49.015Z,0.14
2023-02-28T23:55:22.826Z,0.15
2023-02-28T23:57:56.229Z,0.18
